• Join FlightAware (Why Join?)
  • Login
  • US Flag 
09:16PM EST


 

Airport Tracker/Info


-or-


 

Live Flight TrackerFlight Track Log ✈ N368CS ✈ 21-Mar-2014 ✈ KVNY - KSUN

Flight Track Log - Related Links

Times and Time Zones

All times are in EDT time to prevent confusion due to time zone crossing. See the N368CS flight status page for this flight to view local times or setup timezone preferences in your user account.

Time Position Orientation Groundspeed Altitude Reporting Facility
EDT Latitude Longitude Course Direction KTS MPH feet Rate Location/Type
06:41PM 34.1667 -118.5000 North 200 230 3,500  Level Southern California TRACON
06:42PM 34.1333 -118.5667 239° Southwest 241 277 5,900 2,220 Climbing Southern California TRACON
06:45PM 34.2728 -118.6492 334° Northwest 271 312 10,700 2,280 Climbing Los Angeles Center
06:46PM 34.3475 -118.6789 342° North 281 323 13,400 2,700 Climbing Los Angeles Center
06:47PM 34.9350 -118.8500 North  Level FlightAware Approximate
06:47PM 34.4469 -118.7175 342° North 311 358 16,400  Level Los Angeles Center
06:48PM 34.5317 -118.7508 342° North 316 364 18,700 2,220 Climbing Los Angeles Center
06:49PM 34.6197 -118.7850 342° North 330 380 21,000 1,680 Climbing Los Angeles Center
06:50PM 34.7108 -118.8250 340° North 342 394 22,200 1,260 Climbing Los Angeles Center
06:51PM 34.8106 -118.8594 344° North 365 420 23,700 1,380 Climbing Los Angeles Center
06:52PM 34.9189 -118.8578 North 388 447 25,100 1,260 Climbing Los Angeles Center
06:53PM 35.0500 -118.8539 North 390 449 26,400 1,080 Climbing Los Angeles Center
06:54PM 35.1639 -118.8506 North 404 465 27,400 960 Climbing Los Angeles Center
06:55PM 35.2789 -118.8475 North 410 472 28,400 960 Climbing Los Angeles Center
06:56PM 35.3947 -118.8633 354° North 421 484 29,400 1,020 Climbing Los Angeles Center
06:57PM 35.5075 -118.8836 352° North 418 481 30,600 1,500 Climbing Los Angeles Center
06:58PM 35.6386 -118.8961 356° North 404 465 32,600 1,740 Climbing Los Angeles Center
06:59PM 35.7497 -118.8906 North 403 464 34,200 1,140 Climbing Los Angeles Center
07:00PM 35.8589 -118.8833 North 402 463 35,000 1,020 Climbing Los Angeles Center
07:01PM 35.9242 -118.8800 North 395 455 35,900 840 Climbing Oakland Center
07:02PM 36.0331 -118.8728 North 393 452 36,400 660 Climbing Oakland Center
07:03PM 36.1444 -118.8681 North 398 458 37,300 900 Climbing Oakland Center
07:04PM 36.2767 -118.8586 North 399 459 38,300 720 Climbing Oakland Center
07:05PM 36.3856 -118.8531 North 395 455 38,800 480 Climbing Oakland Center
07:06PM 36.4961 -118.8461 North 397 457 39,300 480 Climbing Oakland Center
07:07PM 36.6022 -118.8353 North 389 448 39,800 300 Climbing Oakland Center
07:08PM 36.7139 -118.8278 North 397 457 40,000 60 Climbing Oakland Center
07:09PM 36.8275 -118.8203 North 406 467 40,000  Level Oakland Center
07:10PM 36.9464 -118.8125 North 423 487 40,000  Level Oakland Center
07:11PM 37.0894 -118.8036 North 430 495 40,000 360 Level Oakland Center
07:12PM 37.2097 -118.7961 North 433 498 40,800 480 Climbing Oakland Center
07:13PM 37.3239 -118.7875 North 418 481 41,000 60 Climbing Oakland Center
07:14PM 37.4397 -118.7492 15° North 438 504 41,000  Level Oakland Center
07:15PM 37.5494 -118.6733 29° Northeast 450 518 41,000  Level Oakland Center
07:16PM 37.6611 -118.5961 29° Northeast 453 521 41,000  Level Oakland Center
07:17PM 37.7719 -118.5181 29° Northeast 455 524 41,000  Level Oakland Center
07:18PM 37.8811 -118.4417 29° Northeast 447 514 41,000  Level Oakland Center
07:19PM 38.0142 -118.3469 29° Northeast 454 522 41,000  Level Oakland Center
07:20PM 38.1264 -118.2692 29° Northeast 455 524 41,000  Level Oakland Center
07:21PM 38.2383 -118.1903 29° Northeast 458 527 41,000  Level Oakland Center
07:22PM 38.3511 -118.1097 29° Northeast 461 531 41,000  Level Oakland Center
07:23PM 38.4622 -118.0289 30° Northeast 458 527 41,000  Level Oakland Center
07:24PM 38.5736 -117.9492 29° Northeast 457 526 41,000  Level Oakland Center
07:25PM 38.6844 -117.8708 29° Northeast 454 522 41,000  Level Oakland Center
07:27PM 38.7947 -117.7903 30° Northeast 453 521 41,000  Level Oakland Center
07:28PM 38.9056 -117.7089 30° Northeast 455 524 41,000  Level Oakland Center
07:29PM 39.0156 -117.6308 29° Northeast 451 519 41,000  Level Oakland Center
07:30PM 39.1475 -117.5322 30° Northeast 454 522 41,000  Level Oakland Center
07:31PM 39.2561 -117.4514 30° Northeast 451 519 41,000  Level Oakland Center
07:32PM 39.3658 -117.3725 29° Northeast 450 518 41,000  Level Oakland Center
07:32PM 39.4367 -117.3194 30° Northeast 452 520 41,000  Level Salt Lake Center
07:33PM 39.5583 -117.2306 29° Northeast 451 519 41,000  Level Salt Lake Center
07:34PM 39.6625 -117.1542 29° Northeast 451 519 41,000  Level Salt Lake Center
07:36PM 39.7836 -117.0636 30° Northeast 451 519 41,000  Level Salt Lake Center
07:37PM 39.8867 -116.9858 30° Northeast 451 519 41,000  Level Salt Lake Center
07:38PM 40.0092 -116.8947 30° Northeast 451 519 41,000  Level Salt Lake Center
07:39PM 40.1122 -116.8164 30° Northeast 451 519 41,000  Level Salt Lake Center
07:40PM 40.2322 -116.7250 30° Northeast 451 519 41,000  Level Salt Lake Center
07:41PM 40.3344 -116.6467 30° Northeast 451 519 41,000  Level Salt Lake Center
07:42PM 40.4533 -116.5586 29° Northeast 449 517 41,000  Level Salt Lake Center
07:43PM 40.5544 -116.4817 30° Northeast 444 511 41,000  Level Salt Lake Center
07:44PM 40.6731 -116.3903 30° Northeast 443 510 41,000  Level Salt Lake Center
07:45PM 40.7747 -116.3111 31° Northeast 444 511 41,000  Level Salt Lake Center
07:46PM 40.8947 -116.2172 31° Northeast 445 512 41,000  Level Salt Lake Center
07:47PM 40.9961 -116.1383 30° Northeast 445 512 41,000  Level Salt Lake Center
07:48PM 41.1164 -116.0464 30° Northeast 445 512 41,000  Level Salt Lake Center
07:49PM 41.2181 -115.9661 31° Northeast 445 512 41,000  Level Salt Lake Center
07:50PM 41.3358 -115.8722 31° Northeast 445 512 41,000  Level Salt Lake Center
07:51PM 41.4383 -115.7919 30° Northeast 445 512 41,000  Level Salt Lake Center
07:52PM 41.5394 -115.7108 31° Northeast 444 511 41,000  Level Salt Lake Center
07:53PM 41.6586 -115.6167 31° Northeast 444 511 41,000  Level Salt Lake Center
07:54PM 41.7594 -115.5342 31° Northeast 445 512 41,000  Level Salt Lake Center
07:55PM 41.8819 -115.4403 30° Northeast 452 520 41,000  Level Salt Lake Center
07:56PM 41.9833 -115.3567 32° Northeast 449 517 41,000 -1,200 Level Salt Lake Center
07:57PM 42.0975 -115.2667 30° Northeast 467 537 38,600 -3,120 Descending Salt Lake Center
07:58PM 42.2114 -115.1733 31° Northeast 479 551 34,700 -3,420 Descending Salt Lake Center
07:59PM 42.3372 -115.0694 31° Northeast 438 504 31,600 -2,820 Descending Salt Lake Center
08:00PM 42.4508 -114.9767 31° Northeast 481 554 28,900 -2,520 Descending Salt Lake Center
08:01PM 42.5561 -114.8914 31° Northeast 496 571 26,500 -2,700 Descending Salt Lake Center
08:02PM 42.6814 -114.7864 32° Northeast 479 551 23,400 -2,760 Descending Salt Lake Center
08:03PM 42.7847 -114.6989 32° Northeast 444 511 20,900 -2,340 Descending Salt Lake Center
08:04PM 42.8822 -114.6197 31° Northeast 363 418 18,600 -1,980 Descending Salt Lake Center
08:05PM 42.9569 -114.5581 31° Northeast 334 384 16,900 -1,500 Descending Salt Lake Center
08:06PM 43.0322 -114.4972 31° Northeast 307 353 15,500 -1,380 Descending Salt Lake Center
08:08PM 43.1025 -114.4403 31° Northeast 286 329 14,100 -1,440 Descending Salt Lake Center
08:09PM 43.1708 -114.3847 31° Northeast 278 320 12,600 -1,500 Descending Salt Lake Center